Time;durP1;ratioP1;P1;durP2;ratioP2;P2;SDS_P1;SDS_P2;PMS_P1;PMS_P2;Temp;Humidity;BMP_temperature;BMP_pressure;BME280_temperature;BME280_humidity;BME280_pressure;Samples;Min_cycle;Max_cycle;Signal;HPM_P1;HPM_P2
2022/09/17 00:02:16;;;;;;;1.77;0.83;;;11.80;99.90;;;;;;5035531;28;21232;-85
2022/09/17 00:04:42;;;;;;;0.93;0.83;;;11.70;99.90;;;;;;5028971;28;21094;-83
2022/09/17 00:07:09;;;;;;;0.93;0.67;;;11.60;99.90;;;;;;5029686;28;20635;-84
2022/09/17 00:09:36;;;;;;;1.60;0.63;;;11.30;99.90;;;;;;5040532;28;20724;-84
2022/09/17 00:12:03;;;;;;;0.80;0.57;;;11.60;99.90;;;;;;5035166;28;20666;-84
2022/09/17 00:14:30;;;;;;;1.70;0.90;;;11.70;99.90;;;;;;5024718;28;20620;-84
2022/09/17 00:16:57;;;;;;;1.10;0.70;;;11.10;99.90;;;;;;5033567;28;21207;-84
2022/09/17 00:19:25;;;;;;;2.97;1.30;;;11.50;99.90;;;;;;5050800;28;20631;-84
2022/09/17 00:21:52;;;;;;;1.20;1.10;;;11.50;99.90;;;;;;5024320;28;20663;-84
2022/09/17 00:24:19;;;;;;;1.53;0.80;;;11.60;99.90;;;;;;5042614;28;20664;-84
2022/09/17 00:26:47;;;;;;;2.50;1.00;;;11.40;99.90;;;;;;5026286;28;20634;-84
2022/09/17 00:29:14;;;;;;;1.00;0.90;;;11.60;99.90;;;;;;5050540;28;20632;-83
2022/09/17 00:31:41;;;;;;;1.10;0.90;;;11.50;99.90;;;;;;5039922;28;21236;-83
2022/09/17 00:34:08;;;;;;;1.60;0.60;;;11.60;99.90;;;;;;5048302;28;20640;-83
2022/09/17 00:36:37;;;;;;;0.77;0.77;;;11.60;99.90;;;;;;5078923;28;20626;-84
2022/09/17 00:39:05;;;;;;;1.70;1.00;;;11.50;99.90;;;;;;5026083;28;20650;-83
2022/09/17 00:41:33;;;;;;;1.40;1.17;;;11.40;99.90;;;;;;5052932;28;21584;-84
2022/09/17 00:44:21;;;;;;;2.97;1.00;;;11.40;99.90;;;;;;5018994;28;20665;-83
2022/09/17 00:46:49;;;;;;;2.03;0.80;;;11.40;99.90;;;;;;5065147;28;21273;-83
2022/09/17 00:49:20;;;;;;;1.20;0.67;;;11.20;99.90;;;;;;5030199;28;20634;-83
2022/09/17 00:51:56;;;;;;;1.07;0.67;;;11.10;99.90;;;;;;5027293;28;20663;-83
2022/09/17 00:54:25;;;;;;;1.70;1.30;;;11.50;99.90;;;;;;5045847;28;20630;-83
2022/09/17 00:56:52;;;;;;;1.60;1.20;;;11.50;99.90;;;;;;5038040;28;20667;-83
2022/09/17 00:59:21;;;;;;;2.23;0.77;;;11.00;99.90;;;;;;5052543;28;20622;-83
2022/09/17 01:01:48;;;;;;;2.30;0.93;;;11.40;99.90;;;;;;5026406;28;21089;-83
2022/09/17 01:04:16;;;;;;;1.63;1.00;;;11.10;99.90;;;;;;5035957;28;20629;-83
2022/09/17 01:06:53;;;;;;;3.73;0.80;;;11.40;99.90;;;;;;5034350;28;20661;-83
2022/09/17 01:09:29;;;;;;;3.00;1.00;;;11.50;99.90;;;;;;5033870;28;20622;-84
2022/09/17 01:12:23;;;;;;;4.43;0.90;;;11.30;99.90;;;;;;5031887;28;20662;-83
2022/09/17 01:15:03;;;;;;;4.00;1.27;;;11.70;99.90;;;;;;5032247;28;20623;-82
2022/09/17 01:17:37;;;;;;;1.60;0.70;;;11.10;99.90;;;;;;5051159;28;20622;-83
2022/09/17 01:20:53;;;;;;;1.73;0.90;;;11.20;99.90;;;;;;5056095;28;20611;-82
2022/09/17 01:23:45;;;;;;;2.00;1.10;;;11.40;99.90;;;;;;5041610;28;20658;-84
2022/09/17 01:26:40;;;;;;;3.10;0.93;;;11.20;99.90;;;;;;5064041;28;20662;-84
2022/09/17 01:29:18;;;;;;;2.70;1.03;;;11.20;99.90;;;;;;5029810;28;21297;-84
2022/09/17 01:31:53;;;;;;;2.40;1.77;;;11.20;99.90;;;;;;5016578;28;21221;-84
2022/09/17 01:34:26;;;;;;;1.37;1.00;;;11.30;99.90;;;;;;5039233;28;20658;-85
2022/09/17 01:37:04;;;;;;;2.20;1.07;;;11.20;99.90;;;;;;5029630;28;20730;-85
2022/09/17 01:39:39;;;;;;;2.10;0.90;;;11.40;99.90;;;;;;5041200;28;20978;-85
2022/09/17 01:42:15;;;;;;;2.13;1.07;;;11.20;99.90;;;;;;5052834;28;20656;-85
2022/09/17 01:44:50;;;;;;;3.20;1.27;;;11.10;99.90;;;;;;5027693;28;20673;-85
2022/09/17 01:47:22;;;;;;;2.23;1.00;;;10.60;99.90;;;;;;5069310;28;20968;-85
2022/09/17 01:49:52;;;;;;;3.47;1.10;;;10.90;99.90;;;;;;5039580;28;21196;-85
2022/09/17 01:52:20;;;;;;;1.13;0.93;;;10.90;99.90;;;;;;5038982;28;20651;-86
2022/09/17 01:54:51;;;;;;;1.20;0.90;;;10.90;99.90;;;;;;5049743;28;20805;-84
2022/09/17 01:57:22;;;;;;;3.00;1.20;;;11.00;99.90;;;;;;5073221;28;20628;-85
2022/09/17 01:59:54;;;;;;;2.20;0.90;;;11.10;99.90;;;;;;5032200;28;20642;-84
2022/09/17 02:02:27;;;;;;;1.40;0.90;;;10.60;99.90;;;;;;5033312;28;20661;-85
2022/09/17 02:04:59;;;;;;;1.70;1.33;;;10.90;99.90;;;;;;5062737;28;20666;-85
2022/09/17 02:07:26;;;;;;;2.60;1.07;;;11.00;99.90;;;;;;5044098;28;20643;-85
2022/09/17 02:09:58;;;;;;;3.90;2.00;;;11.00;99.90;;;;;;5046095;28;20629;-88
2022/09/17 02:12:31;;;;;;;1.00;0.80;;;11.10;99.90;;;;;;5038990;28;20651;-87
2022/09/17 02:15:02;;;;;;;2.40;1.13;;;11.20;99.90;;;;;;5041957;28;20683;-85
2022/09/17 02:17:35;;;;;;;2.03;1.10;;;11.00;99.90;;;;;;5036631;28;20619;-85
2022/09/17 02:20:03;;;;;;;3.87;1.00;;;11.30;99.90;;;;;;5031338;28;20622;-85
2022/09/17 02:22:36;;;;;;;3.10;1.00;;;11.00;99.90;;;;;;5019031;28;20674;-84
2022/09/17 02:25:08;;;;;;;1.50;1.20;;;11.00;99.90;;;;;;5027318;28;20665;-83
2022/09/17 02:27:44;;;;;;;3.67;1.40;;;11.20;99.90;;;;;;5028842;28;20626;-84
2022/09/17 02:30:11;;;;;;;2.17;1.20;;;11.30;99.90;;;;;;5018840;28;20640;-84
2022/09/17 02:32:40;;;;;;;2.23;1.10;;;11.20;99.90;;;;;;5036130;28;21559;-84
2022/09/17 02:35:08;;;;;;;1.73;1.10;;;10.90;99.90;;;;;;5028201;28;20651;-84
2022/09/17 02:37:35;;;;;;;4.83;1.50;;;11.30;99.90;;;;;;5033081;28;20632;-83
2022/09/17 02:40:02;;;;;;;1.50;1.13;;;10.80;99.90;;;;;;5035047;28;20649;-83
2022/09/17 02:42:35;;;;;;;2.50;1.03;;;11.20;99.90;;;;;;5031773;28;21052;-84
2022/09/17 02:45:11;;;;;;;2.37;1.13;;;10.90;99.90;;;;;;5021844;28;20663;-84
2022/09/17 02:48:06;;;;;;;4.17;1.60;;;11.00;99.90;;;;;;5037387;28;20695;-84
2022/09/17 02:50:45;;;;;;;3.63;1.43;;;11.00;99.90;;;;;;5015223;27;20635;-83
2022/09/17 02:53:27;;;;;;;1.27;1.00;;;10.90;99.90;;;;;;5040389;28;21345;-84
2022/09/17 02:56:02;;;;;;;2.87;1.33;;;10.90;99.90;;;;;;5047890;28;21199;-83
2022/09/17 02:58:34;;;;;;;8.00;1.50;;;11.20;99.90;;;;;;5018984;28;20629;-84
2022/09/17 03:01:07;;;;;;;2.53;1.20;;;10.70;99.90;;;;;;5031508;28;20615;-85
2022/09/17 03:03:40;;;;;;;1.60;1.50;;;10.70;99.90;;;;;;5027762;28;21200;-85
2022/09/17 03:06:06;;;;;;;4.27;1.30;;;11.10;99.90;;;;;;5042321;28;20673;-85
2022/09/17 03:08:37;;;;;;;4.83;1.40;;;11.10;99.90;;;;;;5038051;28;20627;-85
2022/09/17 03:11:04;;;;;;;3.40;1.43;;;11.00;99.90;;;;;;5040309;28;20630;-85
2022/09/17 03:13:31;;;;;;;1.83;1.00;;;11.20;99.90;;;;;;5030203;28;21030;-85
2022/09/17 03:15:59;;;;;;;1.70;1.13;;;11.20;99.90;;;;;;5022707;28;20633;-86
2022/09/17 03:18:25;;;;;;;3.60;1.57;;;11.10;99.90;;;;;;5025767;28;20624;-85
2022/09/17 03:20:53;;;;;;;4.33;1.60;;;11.10;99.90;;;;;;5031374;28;20641;-85
2022/09/17 03:23:20;;;;;;;3.93;1.50;;;11.00;99.90;;;;;;5035291;28;20677;-85
2022/09/17 03:25:48;;;;;;;2.17;1.10;;;11.00;99.90;;;;;;5027337;28;20669;-86
2022/09/17 03:28:14;;;;;;;4.00;1.60;;;10.90;99.90;;;;;;5024644;28;20627;-84
2022/09/17 03:30:42;;;;;;;3.43;1.47;;;10.80;99.90;;;;;;5033346;28;20633;-84
2022/09/17 03:33:09;;;;;;;4.23;1.63;;;11.00;99.90;;;;;;5027355;28;20655;-84
2022/09/17 03:35:36;;;;;;;2.00;1.20;;;10.50;99.90;;;;;;5023228;28;20655;-84
2022/09/17 03:38:04;;;;;;;2.73;2.27;;;10.70;99.90;;;;;;5030147;28;20700;-84
2022/09/17 03:40:31;;;;;;;2.97;2.10;;;10.60;99.90;;;;;;5010810;28;20631;-85
2022/09/17 03:42:57;;;;;;;6.30;1.40;;;10.40;99.90;;;;;;5024799;28;20663;-85
2022/09/17 03:45:24;;;;;;;6.90;2.87;;;10.80;99.90;;;;;;5019078;28;20667;-85
2022/09/17 03:47:51;;;;;;;2.10;1.40;;;10.50;99.90;;;;;;5033958;28;20631;-84
2022/09/17 03:50:18;;;;;;;5.73;1.80;;;10.80;99.90;;;;;;5023415;28;20651;-84
2022/09/17 03:52:44;;;;;;;3.23;1.53;;;10.60;99.90;;;;;;5028084;28;20657;-84
2022/09/17 03:55:12;;;;;;;2.30;1.53;;;10.40;99.90;;;;;;5048377;28;20623;-84
2022/09/17 03:57:39;;;;;;;3.80;2.00;;;10.60;99.90;;;;;;5028836;28;20635;-84
2022/09/17 04:00:07;;;;;;;3.10;1.50;;;10.80;99.90;;;;;;5043787;28;20732;-85
2022/09/17 04:02:33;;;;;;;2.87;1.13;;;10.60;99.90;;;;;;5030239;28;20696;-85
2022/09/17 04:05:00;;;;;;;3.90;1.17;;;10.70;99.90;;;;;;5020934;28;21056;-85
2022/09/17 04:07:27;;;;;;;4.57;1.30;;;11.00;99.90;;;;;;5018314;28;20674;-85
2022/09/17 04:09:54;;;;;;;3.80;1.50;;;10.90;99.90;;;;;;5026700;28;20633;-84
2022/09/17 04:12:22;;;;;;;3.53;1.47;;;10.90;99.90;;;;;;5038557;28;20654;-84
2022/09/17 04:14:48;;;;;;;2.17;1.50;;;11.10;99.90;;;;;;5016432;28;20634;-85
2022/09/17 04:17:17;;;;;;;6.50;2.27;;;10.30;99.90;;;;;;5027338;28;20623;-84
2022/09/17 04:19:43;;;;;;;4.60;1.87;;;10.50;99.90;;;;;;5018309;28;20631;-84
2022/09/17 04:22:10;;;;;;;4.53;1.60;;;10.60;99.90;;;;;;5029920;28;20666;-85
2022/09/17 04:24:37;;;;;;;4.53;1.40;;;10.90;99.90;;;;;;5038209;28;20626;-84
2022/09/17 04:27:04;;;;;;;5.93;1.80;;;11.00;99.90;;;;;;5014795;28;21263;-84
2022/09/17 04:29:32;;;;;;;3.00;1.70;;;10.90;99.90;;;;;;5037171;28;20631;-84
2022/09/17 04:31:58;;;;;;;3.80;1.53;;;10.60;99.90;;;;;;5031121;28;20661;-84
2022/09/17 04:34:25;;;;;;;6.70;1.57;;;10.60;99.90;;;;;;5028102;28;20649;-84
2022/09/17 04:36:52;;;;;;;2.10;1.50;;;11.00;99.90;;;;;;5021836;28;20640;-83
2022/09/17 04:39:18;;;;;;;3.47;1.57;;;10.40;99.90;;;;;;5021484;28;20631;-84
2022/09/17 04:41:46;;;;;;;3.80;1.40;;;10.80;99.90;;;;;;5052546;28;20662;-83
2022/09/17 04:44:12;;;;;;;2.60;1.23;;;10.70;99.90;;;;;;5024209;28;20693;-84
2022/09/17 04:46:40;;;;;;;8.83;1.30;;;10.90;99.90;;;;;;5032634;28;20666;-83
2022/09/17 04:49:07;;;;;;;4.80;1.47;;;10.70;99.90;;;;;;5033744;28;20662;-84
2022/09/17 04:51:34;;;;;;;2.87;1.33;;;10.40;99.90;;;;;;5026704;28;20699;-84
2022/09/17 04:54:01;;;;;;;2.50;1.60;;;10.80;99.90;;;;;;5053939;28;20623;-84
2022/09/17 04:56:27;;;;;;;4.50;2.50;;;10.70;99.90;;;;;;5025945;28;20627;-84
2022/09/17 04:58:54;;;;;;;2.67;1.47;;;10.80;99.90;;;;;;5048940;28;20635;-84
2022/09/17 05:01:21;;;;;;;3.73;1.50;;;11.00;99.90;;;;;;5035621;28;20639;-84
2022/09/17 05:03:49;;;;;;;4.03;1.73;;;10.80;99.90;;;;;;5047309;28;20642;-84
2022/09/17 05:06:16;;;;;;;4.63;1.53;;;10.80;99.90;;;;;;5023557;28;20703;-84
2022/09/17 05:08:42;;;;;;;4.83;1.53;;;11.00;99.90;;;;;;5016441;28;20638;-84
2022/09/17 05:11:09;;;;;;;5.00;1.60;;;10.80;99.90;;;;;;5041289;28;21172;-84
2022/09/17 05:13:36;;;;;;;3.60;1.50;;;10.70;99.90;;;;;;5028828;28;20999;-85
2022/09/17 05:16:03;;;;;;;3.57;1.40;;;10.90;99.90;;;;;;5032810;28;20627;-84
2022/09/17 05:18:30;;;;;;;4.50;1.60;;;11.00;99.90;;;;;;5020525;28;20629;-83
2022/09/17 05:20:58;;;;;;;4.30;1.90;;;10.90;99.90;;;;;;5020667;28;21076;-84
2022/09/17 05:23:25;;;;;;;3.23;1.47;;;10.50;99.90;;;;;;5015074;28;21145;-84
2022/09/17 05:25:51;;;;;;;6.73;2.00;;;10.50;99.90;;;;;;5042710;28;20630;-84
2022/09/17 05:28:18;;;;;;;4.37;1.50;;;11.00;99.90;;;;;;5031296;28;20662;-84
2022/09/17 05:30:45;;;;;;;5.50;2.20;;;11.00;99.90;;;;;;5029933;28;20642;-84
2022/09/17 05:33:11;;;;;;;4.30;1.30;;;11.10;99.90;;;;;;5023459;28;20650;-84
2022/09/17 05:35:39;;;;;;;3.73;1.83;;;10.90;99.90;;;;;;5026600;28;21172;-84
2022/09/17 05:38:07;;;;;;;5.67;1.50;;;11.10;99.90;;;;;;5033760;28;20770;-84
2022/09/17 05:40:34;;;;;;;6.17;2.27;;;10.90;99.90;;;;;;5046902;28;20627;-84
2022/09/17 05:43:02;;;;;;;6.40;1.80;;;10.80;99.90;;;;;;5050318;28;21315;-84
2022/09/17 05:45:29;;;;;;;3.50;1.47;;;10.90;99.90;;;;;;5017709;28;20965;-82
2022/09/17 05:47:56;;;;;;;4.07;1.23;;;11.30;99.90;;;;;;5028691;28;20675;-83
2022/09/17 05:50:23;;;;;;;6.00;1.60;;;11.00;99.90;;;;;;5030713;28;21374;-85
2022/09/17 05:52:50;;;;;;;6.63;2.17;;;10.80;99.90;;;;;;5037437;28;21350;-85
2022/09/17 05:55:19;;;;;;;5.07;1.80;;;11.10;99.90;;;;;;5021807;28;20635;-84
2022/09/17 05:57:46;;;;;;;2.67;1.47;;;11.20;99.90;;;;;;5027521;28;20635;-84
2022/09/17 06:00:13;;;;;;;5.20;1.60;;;11.20;99.90;;;;;;5021543;28;20645;-85
2022/09/17 06:02:40;;;;;;;7.70;1.63;;;11.00;99.90;;;;;;5025981;28;20996;-86
2022/09/17 06:05:08;;;;;;;4.23;2.60;;;11.10;99.90;;;;;;5039254;28;20634;-84
2022/09/17 06:07:35;;;;;;;5.70;2.13;;;11.10;99.90;;;;;;5028392;28;20750;-84
2022/09/17 06:10:02;;;;;;;7.03;1.90;;;11.20;99.90;;;;;;5013967;28;21034;-84
2022/09/17 06:12:30;;;;;;;4.40;1.90;;;11.20;99.90;;;;;;5033934;28;20650;-83
2022/09/17 06:14:57;;;;;;;4.80;1.63;;;11.30;99.90;;;;;;5015935;28;21183;-82
2022/09/17 06:17:24;;;;;;;3.07;1.60;;;10.70;99.90;;;;;;5028104;28;21195;-83
2022/09/17 06:19:51;;;;;;;5.37;1.40;;;11.20;99.90;;;;;;5029234;28;21246;-82
2022/09/17 06:22:19;;;;;;;5.40;1.87;;;11.50;99.90;;;;;;5013792;28;20663;-83
2022/09/17 06:24:46;;;;;;;5.20;1.53;;;11.00;99.90;;;;;;5031411;28;21058;-83
2022/09/17 06:27:12;;;;;;;4.10;2.07;;;11.30;99.90;;;;;;5020307;28;21034;-83
2022/09/17 06:29:40;;;;;;;5.73;1.53;;;11.20;99.90;;;;;;5020869;28;20650;-83
2022/09/17 06:32:09;;;;;;;5.80;2.57;;;11.40;99.90;;;;;;5013710;28;20693;-83
2022/09/17 06:34:36;;;;;;;5.77;1.60;;;11.40;99.90;;;;;;5009768;28;21198;-83
2022/09/17 06:37:03;;;;;;;5.10;1.90;;;11.00;99.90;;;;;;5011100;28;20637;-83
2022/09/17 06:39:30;;;;;;;3.17;1.53;;;11.50;99.90;;;;;;5008176;28;21211;-83
2022/09/17 06:41:57;;;;;;;3.17;1.43;;;11.40;99.90;;;;;;5031370;28;21063;-83
2022/09/17 06:44:24;;;;;;;4.73;1.70;;;11.20;99.90;;;;;;5034262;28;20638;-83
2022/09/17 06:46:52;;;;;;;8.60;2.17;;;11.50;99.90;;;;;;5032839;28;20664;-83
2022/09/17 06:49:19;;;;;;;4.80;1.90;;;11.50;99.90;;;;;;5013682;28;20662;-84
2022/09/17 06:51:45;;;;;;;3.73;1.77;;;11.40;99.90;;;;;;5017618;28;20675;-83
2022/09/17 06:54:12;;;;;;;4.73;1.70;;;11.10;99.90;;;;;;5020447;28;20660;-82
2022/09/17 06:56:39;;;;;;;3.50;1.97;;;11.10;99.90;;;;;;5024408;28;20627;-83
2022/09/17 06:59:06;;;;;;;4.20;1.90;;;11.30;99.90;;;;;;5027459;28;20642;-83
2022/09/17 07:01:32;;;;;;;5.87;1.93;;;11.30;99.90;;;;;;5039413;28;20770;-83
2022/09/17 07:04:01;;;;;;;6.47;1.90;;;11.30;99.90;;;;;;5037841;28;20756;-83
2022/09/17 07:06:28;;;;;;;9.37;3.47;;;11.60;99.90;;;;;;5011228;28;20766;-83
2022/09/17 07:08:55;;;;;;;2.90;2.27;;;11.50;99.90;;;;;;5034121;28;21157;-83
2022/09/17 07:11:22;;;;;;;4.73;2.10;;;11.70;99.90;;;;;;5037334;28;20996;-83
2022/09/17 07:13:48;;;;;;;4.73;1.63;;;11.70;99.90;;;;;;5045403;28;20635;-83
2022/09/17 07:16:15;;;;;;;5.50;1.70;;;11.40;99.90;;;;;;5021962;28;21185;-83
2022/09/17 07:18:42;;;;;;;4.40;1.57;;;11.70;99.90;;;;;;5017980;28;20699;-83
2022/09/17 07:21:11;;;;;;;4.40;1.73;;;11.50;99.90;;;;;;5014734;28;20719;-83
2022/09/17 07:23:38;;;;;;;5.03;2.13;;;11.50;99.90;;;;;;5033413;28;20637;-82
2022/09/17 07:26:07;;;;;;;4.13;1.93;;;11.40;99.90;;;;;;5014857;28;20644;-81
2022/09/17 07:28:35;;;;;;;2.30;1.30;;;11.50;99.90;;;;;;5042592;28;20667;-82
2022/09/17 07:31:05;;;;;;;3.17;1.70;;;11.40;99.90;;;;;;5013369;28;20628;-84
2022/09/17 07:33:32;;;;;;;6.97;1.60;;;11.50;99.90;;;;;;5017258;28;20627;-82
2022/09/17 07:36:01;;;;;;;2.90;1.43;;;11.20;99.90;;;;;;5008896;28;20638;-81
2022/09/17 07:38:30;;;;;;;3.20;1.47;;;11.60;99.90;;;;;;5025030;28;20631;-82
2022/09/17 07:40:59;;;;;;;6.27;1.63;;;11.50;99.90;;;;;;5032180;28;20656;-82
2022/09/17 07:43:28;;;;;;;2.37;1.30;;;11.30;99.90;;;;;;5019907;28;20655;-84
2022/09/17 07:45:57;;;;;;;2.87;1.53;;;11.20;99.90;;;;;;5021070;28;20615;-82
2022/09/17 07:48:24;;;;;;;2.93;1.60;;;11.30;99.90;;;;;;5020405;28;20677;-82
2022/09/17 07:50:52;;;;;;;3.77;2.23;;;11.40;99.90;;;;;;5031086;28;20639;-82
2022/09/17 07:53:19;;;;;;;2.07;1.43;;;11.20;99.90;;;;;;5015778;28;21024;-81
2022/09/17 07:55:53;;;;;;;2.70;1.60;;;11.40;99.90;;;;;;5052237;28;20627;-81
2022/09/17 07:58:20;;;;;;;3.73;1.70;;;10.80;99.90;;;;;;5023015;28;20621;-83
2022/09/17 08:00:47;;;;;;;3.67;1.63;;;11.40;99.90;;;;;;5021630;28;21039;-83
2022/09/17 08:03:14;;;;;;;2.50;2.07;;;11.50;99.90;;;;;;5023262;28;21015;-83
2022/09/17 08:05:41;;;;;;;3.73;1.73;;;10.80;99.90;;;;;;5017617;28;20646;-83
2022/09/17 08:08:08;;;;;;;4.07;1.67;;;11.10;99.90;;;;;;5013295;28;20673;-83
2022/09/17 08:10:35;;;;;;;1.93;1.80;;;11.20;99.90;;;;;;5021418;28;20642;-83
2022/09/17 08:13:03;;;;;;;3.40;1.77;;;11.10;99.90;;;;;;5019241;28;21232;-83
2022/09/17 08:15:30;;;;;;;3.17;1.80;;;10.70;99.90;;;;;;5029469;28;20653;-83
2022/09/17 08:17:57;;;;;;;3.57;1.60;;;11.00;99.90;;;;;;5035171;28;20658;-83
2022/09/17 08:20:25;;;;;;;2.77;1.90;;;11.00;99.90;;;;;;5028761;28;20996;-84
2022/09/17 08:22:58;;;;;;;2.83;1.50;;;11.30;99.90;;;;;;5017253;28;20671;-83
2022/09/17 08:25:25;;;;;;;3.10;1.40;;;11.20;99.90;;;;;;5011229;28;20663;-84
2022/09/17 08:27:54;;;;;;;3.83;2.00;;;11.00;99.90;;;;;;5022118;28;20667;-83
2022/09/17 08:30:22;;;;;;;4.27;2.20;;;11.30;99.90;;;;;;5031176;28;21044;-83
2022/09/17 08:32:49;;;;;;;5.17;2.00;;;11.20;99.90;;;;;;5039673;28;20654;-83
2022/09/17 08:35:16;;;;;;;7.17;2.20;;;11.40;99.90;;;;;;5021576;28;20638;-83
2022/09/17 08:37:43;;;;;;;7.10;2.10;;;11.00;99.90;;;;;;5016914;28;20630;-83
2022/09/17 08:40:14;;;;;;;4.63;2.07;;;11.30;99.90;;;;;;5020345;28;20607;-83
2022/09/17 08:42:52;;;;;;;3.70;1.53;;;11.40;99.90;;;;;;5020175;28;20658;-84
2022/09/17 08:45:20;;;;;;;3.57;2.20;;;11.10;99.90;;;;;;5008863;28;20655;-84
2022/09/17 08:47:49;;;;;;;6.73;2.20;;;11.50;99.90;;;;;;5006561;28;20763;-84
2022/09/17 08:50:22;;;;;;;4.30;1.87;;;11.70;99.90;;;;;;5013987;28;20740;-83
2022/09/17 08:53:13;;;;;;;6.63;1.90;;;11.70;99.90;;;;;;5017906;28;20778;-83
2022/09/17 08:55:43;;;;;;;4.40;2.40;;;11.90;99.90;;;;;;5035741;28;20639;-83
2022/09/17 08:58:41;;;;;;;4.20;2.47;;;11.50;99.90;;;;;;5023106;28;20640;-83
2022/09/17 09:01:23;;;;;;;6.40;2.93;;;12.00;99.90;;;;;;5008722;28;21029;-81
2022/09/17 09:04:06;;;;;;;8.50;2.20;;;12.30;99.90;;;;;;5035295;28;20634;-81
2022/09/17 09:06:36;;;;;;;5.87;2.30;;;11.90;99.90;;;;;;5005028;28;20665;-83
2022/09/17 09:09:08;;;;;;;4.37;2.53;;;12.10;99.90;;;;;;5030189;28;20695;-84
2022/09/17 09:11:35;;;;;;;5.47;2.40;;;12.60;99.90;;;;;;5018328;28;20655;-83
2022/09/17 09:14:13;;;;;;;5.53;2.20;;;12.40;99.90;;;;;;5014825;28;20635;-83
2022/09/17 09:16:43;;;;;;;6.90;2.07;;;12.80;99.90;;;;;;5017336;28;20646;-83
2022/09/17 09:19:21;;;;;;;4.97;1.97;;;12.60;99.90;;;;;;5035571;28;20716;-83
2022/09/17 09:22:00;;;;;;;7.10;2.43;;;13.10;99.90;;;;;;5011169;28;21036;-84
2022/09/17 09:24:39;;;;;;;8.67;3.30;;;13.20;99.90;;;;;;5020065;28;20662;-83
2022/09/17 09:27:16;;;;;;;7.93;2.73;;;13.20;99.90;;;;;;5031325;28;20734;-83
2022/09/17 09:29:56;;;;;;;7.30;2.90;;;13.10;99.90;;;;;;5028443;28;20780;-83
2022/09/17 09:32:36;;;;;;;9.43;2.50;;;13.30;99.90;;;;;;5020380;28;21212;-84
2022/09/17 09:35:18;;;;;;;4.90;2.03;;;13.30;99.90;;;;;;5016098;28;20725;-83
2022/09/17 09:37:50;;;;;;;4.57;2.20;;;13.20;99.90;;;;;;5031042;28;20632;-83
2022/09/17 09:40:27;;;;;;;5.80;2.33;;;13.20;99.90;;;;;;5011686;28;20651;-83
2022/09/17 09:42:59;;;;;;;6.40;2.50;;;13.20;99.90;;;;;;5014776;28;21435;-84
2022/09/17 09:45:41;;;;;;;6.60;2.90;;;13.30;99.90;;;;;;5019284;28;21075;-83
2022/09/17 09:48:16;;;;;;;6.83;2.30;;;13.30;99.90;;;;;;5033307;28;20654;-83
2022/09/17 09:50:50;;;;;;;9.23;2.70;;;13.50;99.90;;;;;;5006846;28;21207;-83
2022/09/17 09:53:29;;;;;;;8.87;3.00;;;13.30;99.90;;;;;;5021321;28;20714;-83
2022/09/17 09:56:12;;;;;;;5.30;2.30;;;13.50;99.90;;;;;;5014417;28;20627;-83
2022/09/17 09:58:40;;;;;;;6.77;2.20;;;13.50;99.90;;;;;;5006745;28;20659;-82
2022/09/17 10:01:13;;;;;;;8.17;2.33;;;13.50;99.90;;;;;;5016408;28;21146;-83
2022/09/17 10:03:44;;;;;;;6.30;2.27;;;13.40;99.90;;;;;;5019482;28;20646;-82
2022/09/17 10:06:13;;;;;;;5.23;2.00;;;13.40;99.90;;;;;;5011649;28;20630;-83
2022/09/17 10:09:01;;;;;;;6.47;2.13;;;13.30;99.90;;;;;;5015915;28;20670;-83
2022/09/17 10:11:31;;;;;;;4.87;2.07;;;13.50;99.90;;;;;;5039795;28;20671;-83
2022/09/17 10:14:14;;;;;;;7.60;2.73;;;13.60;99.90;;;;;;5026470;28;21026;-83
2022/09/17 10:16:41;;;;;;;4.47;2.33;;;13.40;99.90;;;;;;5012775;28;20650;-83
2022/09/17 10:19:14;;;;;;;5.73;2.20;;;13.80;99.90;;;;;;5027819;28;20643;-83
2022/09/17 10:21:43;;;;;;;4.00;2.13;;;13.70;99.90;;;;;;5025929;28;21204;-83
2022/09/17 10:24:23;;;;;;;4.63;2.10;;;13.50;99.90;;;;;;5019694;28;20675;-83
2022/09/17 10:26:51;;;;;;;5.80;1.90;;;13.80;99.90;;;;;;5022206;28;21025;-83
2022/09/17 10:29:20;;;;;;;6.87;2.00;;;13.90;99.90;;;;;;5010816;28;20670;-83
2022/09/17 10:31:48;;;;;;;4.73;2.00;;;13.90;99.90;;;;;;5042768;28;20674;-83
2022/09/17 10:34:20;;;;;;;4.43;2.00;;;13.90;99.90;;;;;;5021725;28;21122;-83
2022/09/17 10:36:49;;;;;;;4.50;1.87;;;14.00;99.90;;;;;;5007943;28;21233;-83
2022/09/17 10:39:30;;;;;;;6.17;2.73;;;14.00;99.90;;;;;;5021934;28;20643;-83
2022/09/17 10:41:58;;;;;;;4.80;2.27;;;14.20;99.90;;;;;;5015692;28;20736;-84
2022/09/17 10:44:27;;;;;;;5.77;2.23;;;14.40;99.90;;;;;;5018791;28;21224;-83
2022/09/17 10:46:55;;;;;;;2.60;1.33;;;14.60;99.90;;;;;;5008270;28;20635;-83
2022/09/17 10:49:34;;;;;;;4.10;1.63;;;14.80;99.90;;;;;;5007622;28;20699;-82
2022/09/17 10:52:08;;;;;;;7.40;1.73;;;15.00;99.90;;;;;;5013762;28;20683;-83
2022/09/17 10:55:14;;;;;;;7.40;1.80;;;15.20;99.90;;;;;;5014640;28;20651;-83
2022/09/17 10:58:02;;;;;;;4.87;1.50;;;15.20;99.90;;;;;;5011419;28;20629;-83
2022/09/17 11:00:40;;;;;;;2.60;1.70;;;15.30;99.90;;;;;;5009647;28;20735;-83
2022/09/17 11:03:27;;;;;;;3.57;1.80;;;15.40;99.90;;;;;;5025548;28;20693;-83
2022/09/17 11:06:14;;;;;;;2.70;1.40;;;15.40;99.90;;;;;;5027959;28;20642;-82
2022/09/17 11:08:50;;;;;;;4.47;1.63;;;15.60;99.90;;;;;;5014741;28;20707;-83
2022/09/17 11:11:33;;;;;;;3.47;1.60;;;15.60;99.90;;;;;;5015611;28;20618;-83
2022/09/17 11:14:11;;;;;;;3.93;1.40;;;15.70;99.90;;;;;;5021147;28;20619;-83
2022/09/17 11:16:47;;;;;;;2.27;1.47;;;15.80;99.90;;;;;;5000295;28;20646;-82
2022/09/17 11:19:25;;;;;;;5.07;1.67;;;15.80;99.90;;;;;;4999035;28;20700;-81
2022/09/17 11:21:57;;;;;;;4.93;2.53;;;15.80;99.90;;;;;;5033015;28;20678;-83
2022/09/17 11:24:52;;;;;;;3.77;1.60;;;15.90;99.90;;;;;;5019564;28;20650;-83
2022/09/17 11:27:46;;;;;;;2.70;1.40;;;16.10;99.90;;;;;;5022516;28;20627;-83
2022/09/17 11:30:19;;;;;;;1.80;1.10;;;16.10;99.90;;;;;;5004836;28;21056;-83
2022/09/17 11:33:21;;;;;;;5.23;1.60;;;16.10;99.90;;;;;;5005749;28;20806;-83
2022/09/17 11:35:51;;;;;;;2.73;1.10;;;15.90;99.20;;;;;;5028313;28;20663;-83
2022/09/17 11:38:24;;;;;;;3.50;1.33;;;15.90;99.90;;;;;;5011990;28;20993;-83
2022/09/17 11:41:01;;;;;;;2.20;0.90;;;15.90;99.90;;;;;;5024680;28;20997;-83
2022/09/17 11:43:31;;;;;;;2.20;1.20;;;15.90;99.90;;;;;;5035989;28;20662;-83
2022/09/17 11:46:03;;;;;;;4.40;1.60;;;16.00;98.80;;;;;;5016827;28;20636;-83
2022/09/17 11:48:38;;;;;;;2.43;1.13;;;15.90;99.40;;;;;;5018211;28;20667;-83
2022/09/17 11:51:21;;;;;;;3.37;1.20;;;16.00;99.90;;;;;;5019574;28;20631;-82
2022/09/17 11:53:53;;;;;;;5.07;1.23;;;16.10;99.60;;;;;;5016286;28;20651;-82
2022/09/17 11:56:25;;;;;;;4.90;1.30;;;16.20;99.30;;;;;;5029063;28;20699;-83
2022/09/17 11:58:57;;;;;;;3.20;1.20;;;16.20;99.40;;;;;;5035160;28;20622;-83
2022/09/17 12:01:31;;;;;;;1.77;1.20;;;16.30;97.50;;;;;;5024221;28;20619;-83
2022/09/17 12:04:01;;;;;;;3.63;1.30;;;16.60;96.00;;;;;;5020458;28;20700;-84
2022/09/17 12:06:36;;;;;;;4.73;1.27;;;16.80;95.60;;;;;;5052481;28;21580;-83
2022/09/17 12:09:12;;;;;;;4.53;1.07;;;16.90;92.70;;;;;;5038845;28;21242;-83
2022/09/17 12:11:45;;;;;;;2.43;1.03;;;16.90;93.30;;;;;;5037484;28;20713;-82
2022/09/17 12:14:18;;;;;;;2.37;1.20;;;16.80;93.80;;;;;;5010637;28;20629;-83
2022/09/17 12:16:49;;;;;;;4.43;1.70;;;16.80;95.00;;;;;;5020282;28;20641;-83
2022/09/17 12:19:24;;;;;;;4.47;2.27;;;16.80;97.30;;;;;;5030179;28;20657;-83
2022/09/17 12:21:54;;;;;;;2.70;1.67;;;16.50;97.40;;;;;;5022918;28;20716;-83
2022/09/17 12:24:24;;;;;;;6.23;1.50;;;16.30;98.90;;;;;;5018190;28;20727;-82
2022/09/17 12:27:15;;;;;;;1.50;1.13;;;16.20;98.10;;;;;;5022913;28;20632;-84
2022/09/17 12:30:03;;;;;;;6.50;1.43;;;16.00;98.70;;;;;;5015271;28;20765;-82
2022/09/17 12:32:43;;;;;;;1.70;1.07;;;15.80;99.90;;;;;;5039458;28;20664;-83
2022/09/17 12:35:20;;;;;;;1.83;0.80;;;15.50;99.90;;;;;;5006550;28;20780;-82
2022/09/17 12:37:58;;;;;;;2.30;0.80;;;15.20;99.90;;;;;;5016843;28;20635;-83
2022/09/17 12:40:31;;;;;;;4.23;1.00;;;15.00;99.90;;;;;;5035525;28;21166;-83
2022/09/17 12:43:11;;;;;;;6.00;1.20;;;14.90;99.90;;;;;;5035834;28;21209;-82
2022/09/17 12:46:06;;;;;;;2.83;1.40;;;14.70;99.90;;;;;;4999508;28;21203;-82
2022/09/17 12:48:59;;;;;;;3.30;1.70;;;14.40;99.90;;;;;;4993876;28;21190;-83
2022/09/17 12:51:50;;;;;;;4.23;1.60;;;14.70;99.90;;;;;;4994499;28;20698;-83
2022/09/17 12:54:35;;;;;;;5.43;1.63;;;15.10;99.90;;;;;;5009371;28;20631;-83
2022/09/17 12:57:09;;;;;;;4.50;2.20;;;15.40;99.90;;;;;;5005945;28;20631;-82
2022/09/17 12:59:45;;;;;;;4.33;1.67;;;15.70;99.90;;;;;;5008704;28;20981;-82
2022/09/17 13:02:19;;;;;;;2.10;1.20;;;15.80;99.90;;;;;;5001565;28;21287;-83
2022/09/17 13:05:04;;;;;;;3.47;1.73;;;15.80;99.90;;;;;;4997578;28;20667;-83
2022/09/17 13:07:50;;;;;;;1.90;1.33;;;16.00;99.90;;;;;;4996570;28;20639;-83
2022/09/17 13:10:44;;;;;;;3.03;1.47;;;16.00;99.90;;;;;;4997911;28;20717;-83
2022/09/17 13:13:33;;;;;;;1.70;0.70;;;15.80;99.90;;;;;;4996389;28;20660;-82